< < Back
Terminal Aerodrome Forecast


Current Version              Previous Versions:   1  2  3  4  5  6  7  8  9  

Terminal Aerodrome Forecast

369
FTUS42 KGSP 031402 AAB
TAFAND
TAF AMD
KAND 031402Z 0314/0412 23011KT P6SM -SHRA OVC007
     FM031600 24012G17KT P6SM -SHRA VCTS BKN035CB
     FM032000 24016G25KT P6SM -SHRA VCTS BKN040CB
     FM040000 25014G22KT P6SM BKN060
     FM040200 25009KT P6SM BKN110
     FM041000 23007KT P6SM BKN020=

Latest METAR

490
SAUS70 KWBC 031900 RRG
MTRAND
METAR KAND 031856Z AUTO 24010KT 10SM FEW070 SCT100 27/21 A2995 RMK AO2
RAB21E51 SLP133 P0000 T02670211


USA.gov is the U.S. government's official web portal to all federal, state and local government web resources and services.